Decoded Metar for KOCW (WASHINGTON in NC, USA) (IATA:OCW) | Meteo·Mobile Aviation Weather
aviador You're here:

KOCW Decoded Metar

WASHINGTON in NC, USA
Report Time2019-01-18 14:00:00
UTC Time2019-01-18 14:15:54
Flight Rules lifr LIFR
Wind220° at 04 kt
W.Decomp.*RWY 23: 4.0 kt HW 0.1 kt LCW
RWY 17: 2.1 kt HW 3.4 kt RCW
W.Rank220° ranks 1
Current wind is below 220° avg. (6.8)
Visibility8047 m
Phenomena:Mist
Clouds:Broken 003 Hf
Broken 032 Hf
Expected CloudBase > 400 ft AGL from Temp-Dew spread
Ceiling300 ft
Temp07°C (ISA -8)
Dew Point06°C (93% RH)
AAT4.6°C
QNH1020 hPa
Density Alt-1,027 ft
Elevation39 ft
Report Wrong Elevation
Raw Report
METAR KOCW 181400Z AUTO 22004KT 5SM BR BKN003 BKN032 07/06 A3011 RMK
AO2 T00670063=

Extra information for KOCW:More info

Metar Taf Metar & Taf Last 4 Metars F.Rules Stats Wind Profile Meteogram Temp Stats Airport Information Weather charts Add Link Nearby VenuesMetar ALERT Operation Metar Decoded Social comments

AIRNAV info for KOCW